createdAt,value
2018-06-21T00:02:23.486Z,10.07
2018-06-21T00:04:51.865Z,8.87
2018-06-21T00:07:20.253Z,16.30
2018-06-21T00:09:48.651Z,9.90
2018-06-21T00:12:17.014Z,10.13
2018-06-21T00:14:45.404Z,9.87
2018-06-21T00:17:13.792Z,11.77
2018-06-21T00:19:42.361Z,10.17
2018-06-21T00:22:10.864Z,8.30
2018-06-21T00:24:39.244Z,14.20
2018-06-21T00:27:07.648Z,9.50
2018-06-21T00:29:36.026Z,8.00
2018-06-21T00:32:04.456Z,12.90
2018-06-21T00:34:32.897Z,11.67
2018-06-21T00:37:01.483Z,7.50
2018-06-21T00:39:29.875Z,11.03
2018-06-21T00:41:58.259Z,15.60
2018-06-21T00:44:26.807Z,10.90
2018-06-21T00:46:55.421Z,14.23
2018-06-21T00:49:23.808Z,9.13
2018-06-21T00:51:52.209Z,10.33
2018-06-21T00:54:20.572Z,11.00
2018-06-21T00:56:48.968Z,11.00
2018-06-21T00:59:17.063Z,20.53
2018-06-21T01:01:45.446Z,12.73
2018-06-21T01:04:13.820Z,15.13
2018-06-21T01:06:42.196Z,13.33
2018-06-21T01:09:10.571Z,11.17
2018-06-21T01:11:38.966Z,11.30
2018-06-21T01:14:07.347Z,11.57
2018-06-21T01:16:35.798Z,13.80
2018-06-21T01:19:04.451Z,17.50
2018-06-21T01:21:32.832Z,12.97
2018-06-21T01:24:01.200Z,11.27
2018-06-21T01:26:29.601Z,13.07
2018-06-21T01:28:57.979Z,12.40
2018-06-21T01:31:26.360Z,21.33
2018-06-21T01:33:54.525Z,15.50
2018-06-21T01:36:22.921Z,19.20
2018-06-21T01:38:51.291Z,18.50
2018-06-21T01:41:19.684Z,19.80
2018-06-21T01:43:48.057Z,19.80
2018-06-21T01:46:16.448Z,17.70
2018-06-21T01:48:44.868Z,20.57
2018-06-21T01:51:13.388Z,28.70
2018-06-21T01:53:41.769Z,19.63
2018-06-21T01:56:10.176Z,23.83
2018-06-21T01:58:38.560Z,21.07
2018-06-21T02:01:06.960Z,20.90
2018-06-21T02:03:35.492Z,22.23
2018-06-21T02:06:03.916Z,18.03
2018-06-21T02:08:32.284Z,18.03
2018-06-21T02:11:00.708Z,18.60
2018-06-21T02:13:29.120Z,20.70
2018-06-21T02:15:57.191Z,19.40
2018-06-21T02:18:25.583Z,19.27
2018-06-21T02:20:53.960Z,18.60
2018-06-21T02:23:22.321Z,20.33
2018-06-21T02:25:50.744Z,17.63
2018-06-21T02:28:19.151Z,20.83
2018-06-21T02:30:47.528Z,19.57
2018-06-21T02:33:15.925Z,21.70
2018-06-21T02:35:44.051Z,19.27
2018-06-21T02:38:12.442Z,16.80
2018-06-21T02:40:40.824Z,13.97
2018-06-21T02:43:09.195Z,17.03
2018-06-21T02:45:37.616Z,14.30
2018-06-21T02:48:06.275Z,18.00
2018-06-21T02:50:34.644Z,15.33
2018-06-21T02:53:03.013Z,13.27
2018-06-21T02:55:31.606Z,16.43
2018-06-21T02:57:59.964Z,13.27
2018-06-21T03:00:28.337Z,17.27
2018-06-21T03:02:56.748Z,19.13
2018-06-21T03:05:25.132Z,20.50
2018-06-21T03:07:54.374Z,14.47
2018-06-21T03:10:22.767Z,12.70
2018-06-21T03:12:51.164Z,20.53
2018-06-21T03:15:19.557Z,14.73
2018-06-21T03:17:47.964Z,20.13
2018-06-21T03:20:16.338Z,14.83
2018-06-21T03:22:44.753Z,16.77
2018-06-21T03:25:13.162Z,15.40
2018-06-21T03:27:41.543Z,16.40
2018-06-21T03:30:09.944Z,15.80
2018-06-21T03:32:38.067Z,17.20
2018-06-21T03:35:06.519Z,17.03
2018-06-21T03:37:35.248Z,16.43
2018-06-21T03:40:03.704Z,20.90
2018-06-21T03:42:32.088Z,15.70
2018-06-21T03:45:00.695Z,16.10
2018-06-21T03:47:29.136Z,16.53
2018-06-21T03:49:57.523Z,13.53
2018-06-21T03:52:25.927Z,15.00
2018-06-21T03:54:54.297Z,16.00
2018-06-21T03:57:22.716Z,17.17
2018-06-21T03:59:51.101Z,16.00
2018-06-21T04:02:19.484Z,16.57
2018-06-21T04:04:48.100Z,19.50
2018-06-21T04:07:16.524Z,13.20
2018-06-21T04:09:44.905Z,13.83
2018-06-21T04:12:13.294Z,15.37
2018-06-21T04:14:41.705Z,15.50
2018-06-21T04:17:10.325Z,13.17
2018-06-21T04:19:38.712Z,14.63
2018-06-21T04:22:07.111Z,15.43
2018-06-21T04:24:35.578Z,13.57
2018-06-21T04:27:04.001Z,17.63
2018-06-21T04:29:33.365Z,14.90
2018-06-21T04:32:01.753Z,15.07
2018-06-21T04:34:30.157Z,18.03
2018-06-21T04:36:58.536Z,17.27
2018-06-21T04:39:26.992Z,25.90
2018-06-21T04:41:55.372Z,20.23
2018-06-21T04:44:23.769Z,24.47
2018-06-21T04:46:52.388Z,22.00
2018-06-21T04:49:21.041Z,27.63
2018-06-21T04:51:49.529Z,23.10
2018-06-21T04:54:18.140Z,27.03
2018-06-21T04:56:46.789Z,26.00
2018-06-21T04:59:15.180Z,21.00
2018-06-21T05:01:43.608Z,25.90
2018-06-21T05:04:12.077Z,25.70
2018-06-21T05:06:40.450Z,28.53
2018-06-21T05:09:11.150Z,27.97
2018-06-21T05:11:39.620Z,32.83
2018-06-21T05:14:08.751Z,28.57
2018-06-21T05:16:37.139Z,27.93
2018-06-21T05:19:05.533Z,29.33
2018-06-21T05:21:34.380Z,29.23
2018-06-21T05:24:03.320Z,35.67
2018-06-21T05:26:31.722Z,32.90
2018-06-21T05:29:00.940Z,29.80
2018-06-21T05:31:29.405Z,32.10
2018-06-21T05:33:57.804Z,33.60
2018-06-21T05:36:26.204Z,40.50
2018-06-21T05:38:54.592Z,34.37
2018-06-21T05:41:23.104Z,37.90
2018-06-21T05:43:51.500Z,35.57
2018-06-21T05:46:19.963Z,34.37
2018-06-21T05:48:49.260Z,33.30
2018-06-21T05:51:17.750Z,31.83
2018-06-21T05:53:46.120Z,30.20
2018-06-21T05:56:14.508Z,30.63
2018-06-21T05:58:42.944Z,33.80
2018-06-21T06:01:11.347Z,29.80
2018-06-21T06:03:39.824Z,33.83
2018-06-21T06:06:08.472Z,28.43
2018-06-21T06:08:36.934Z,28.60
2018-06-21T06:11:07.543Z,27.73
2018-06-21T06:13:36.006Z,25.63
2018-06-21T06:16:04.605Z,30.27
2018-06-21T06:18:33.175Z,24.30
2018-06-21T06:21:03.005Z,26.97
2018-06-21T06:23:31.513Z,23.13
2018-06-21T06:25:59.954Z,24.17
2018-06-21T06:28:28.328Z,22.40
2018-06-21T06:30:56.705Z,26.50
2018-06-21T06:33:25.120Z,24.50
2018-06-21T06:35:55.643Z,22.60
2018-06-21T06:38:24.197Z,22.80
2018-06-21T06:40:52.929Z,26.17
2018-06-21T06:43:21.309Z,21.23
2018-06-21T06:45:49.725Z,22.27
2018-06-21T06:48:18.110Z,22.43
2018-06-21T06:50:46.497Z,25.07
2018-06-21T06:53:14.908Z,27.73
2018-06-21T06:55:43.316Z,21.90
2018-06-21T06:58:11.700Z,17.43
2018-06-21T07:00:40.141Z,18.70
2018-06-21T07:03:08.543Z,17.47
2018-06-21T07:05:36.921Z,16.47
2018-06-21T07:08:05.353Z,15.30
2018-06-21T07:10:33.852Z,19.37
2018-06-21T07:13:02.336Z,15.17
2018-06-21T07:15:30.772Z,14.60
2018-06-21T07:17:59.185Z,14.53
2018-06-21T07:20:27.829Z,16.53
2018-06-21T07:22:56.635Z,11.43
2018-06-21T07:25:25.040Z,14.27
2018-06-21T07:27:53.640Z,9.63
2018-06-21T07:30:22.032Z,9.63
2018-06-21T07:32:50.416Z,9.30
2018-06-21T07:35:18.833Z,8.47
2018-06-21T07:37:47.219Z,6.43
2018-06-21T07:40:15.612Z,12.90
2018-06-21T07:42:44.272Z,11.43
2018-06-21T07:45:12.650Z,11.97
2018-06-21T07:47:41.043Z,9.50
2018-06-21T07:50:09.504Z,7.37
2018-06-21T07:52:37.917Z,8.80
2018-06-21T07:55:06.304Z,5.17
2018-06-21T07:57:34.893Z,10.87
2018-06-21T08:00:03.341Z,6.20
2018-06-21T08:02:31.773Z,14.83
2018-06-21T08:05:00.206Z,5.67
2018-06-21T08:07:28.664Z,5.87
2018-06-21T08:09:57.024Z,5.93
2018-06-21T08:12:25.532Z,9.03
2018-06-21T08:14:53.931Z,12.23
2018-06-21T08:17:22.332Z,9.37
2018-06-21T08:19:50.741Z,8.97
2018-06-21T08:22:19.264Z,10.03
2018-06-21T08:24:47.660Z,10.07
2018-06-21T08:27:16.141Z,8.57
2018-06-21T08:29:44.783Z,11.60
2018-06-21T08:32:13.180Z,10.70
2018-06-21T08:34:41.793Z,6.33
2018-06-21T08:37:10.184Z,4.80
2018-06-21T08:39:38.633Z,6.43
2018-06-21T08:42:07.228Z,6.47
2018-06-21T08:44:35.635Z,7.73
2018-06-21T08:47:04.142Z,5.17
2018-06-21T08:49:32.776Z,4.23
2018-06-21T08:52:01.198Z,6.10
2018-06-21T08:54:29.579Z,5.07
2018-06-21T08:56:58.012Z,5.03
2018-06-21T08:59:26.388Z,8.13
2018-06-21T09:01:54.800Z,13.27
2018-06-21T09:04:23.231Z,7.83
2018-06-21T09:06:51.677Z,10.33
2018-06-21T09:09:20.060Z,12.93
2018-06-21T10:05:55.961Z,12.63
2018-06-21T10:08:24.345Z,7.43
2018-06-21T10:10:52.732Z,5.40
2018-06-21T10:13:21.169Z,5.10
2018-06-21T10:15:49.623Z,7.40
2018-06-21T10:18:18.034Z,4.67
2018-06-21T10:20:46.469Z,13.90
2018-06-21T10:23:15.025Z,9.50
2018-06-21T10:25:43.457Z,8.17
2018-06-21T10:28:12.216Z,8.07
2018-06-21T10:30:40.584Z,4.47
2018-06-21T10:33:09.008Z,10.43
2018-06-21T10:35:37.467Z,8.40
2018-06-21T10:38:05.840Z,3.83
2018-06-21T10:40:34.233Z,7.30
2018-06-21T10:43:02.701Z,5.43
2018-06-21T10:45:31.068Z,7.13
2018-06-21T10:47:59.443Z,6.13
2018-06-21T10:50:27.968Z,12.60
2018-06-21T10:52:56.366Z,5.30
2018-06-21T10:55:24.939Z,7.90
2018-06-21T10:57:53.341Z,6.87
2018-06-21T11:00:21.704Z,3.30
2018-06-21T11:02:50.431Z,7.67
2018-06-21T11:05:18.860Z,6.30
2018-06-21T11:07:47.208Z,7.03
2018-06-21T11:10:15.677Z,7.17
2018-06-21T11:12:44.096Z,6.40
2018-06-21T11:15:12.501Z,6.73
2018-06-21T11:17:41.113Z,5.77
2018-06-21T11:20:09.685Z,11.83
2018-06-21T11:22:38.107Z,9.37
2018-06-21T11:25:06.760Z,9.27
2018-06-21T11:27:35.168Z,9.93
2018-06-21T11:30:03.395Z,9.93
2018-06-21T11:32:31.793Z,6.33
2018-06-21T11:35:00.205Z,8.30
2018-06-21T11:37:28.716Z,6.50
2018-06-21T11:39:57.134Z,8.27
2018-06-21T11:42:25.520Z,7.43
2018-06-21T11:44:53.852Z,4.07
2018-06-21T11:47:22.312Z,11.87
2018-06-21T11:49:50.688Z,7.40
2018-06-21T11:52:19.338Z,6.03
2018-06-21T11:54:47.921Z,5.83
2018-06-21T11:57:16.313Z,10.60
2018-06-21T11:59:44.788Z,6.90
2018-06-21T12:02:13.441Z,6.50
2018-06-21T12:04:42.203Z,14.17
2018-06-21T12:07:10.625Z,13.30
2018-06-21T12:09:39.024Z,9.67
2018-06-21T12:12:07.580Z,7.50
2018-06-21T12:14:35.649Z,11.77
2018-06-21T12:17:04.083Z,13.07
2018-06-21T12:19:32.668Z,6.83
2018-06-21T12:22:01.117Z,8.63
2018-06-21T12:24:29.864Z,5.43
2018-06-21T12:26:59.346Z,12.63
2018-06-21T12:29:28.444Z,12.30
2018-06-21T12:31:57.526Z,8.33
2018-06-21T12:34:25.910Z,9.90
2018-06-21T12:36:54.310Z,6.43
2018-06-21T12:39:23.148Z,9.47
2018-06-21T12:41:51.543Z,8.00
2018-06-21T12:44:19.941Z,7.80
2018-06-21T12:46:48.654Z,8.97
2018-06-21T12:49:17.193Z,6.87
2018-06-21T12:51:45.591Z,12.10
2018-06-21T12:54:14.025Z,6.90
2018-06-21T12:56:42.417Z,15.77
2018-06-21T12:59:10.793Z,10.57
2018-06-21T13:01:39.222Z,8.53
2018-06-21T13:04:08.185Z,12.87
2018-06-21T13:06:36.566Z,10.53
2018-06-21T13:09:16.348Z,11.43
2018-06-21T13:12:54.884Z,6.87
2018-06-21T13:15:23.335Z,4.93
2018-06-21T13:17:51.793Z,8.60
2018-06-21T13:20:20.269Z,18.33
2018-06-21T13:22:48.896Z,7.43
2018-06-21T13:25:17.272Z,6.30
2018-06-21T13:27:45.664Z,17.97
2018-06-21T13:30:14.061Z,5.40
2018-06-21T13:32:42.485Z,7.73
2018-06-21T13:35:10.897Z,5.43
2018-06-21T13:37:39.443Z,6.90
2018-06-21T13:40:07.910Z,10.00
2018-06-21T13:42:36.548Z,10.13
2018-06-21T13:45:05.521Z,6.67
2018-06-21T13:47:33.987Z,9.70
2018-06-21T13:50:02.421Z,8.23
2018-06-21T13:52:31.052Z,9.40
2018-06-21T13:54:59.636Z,6.40
2018-06-21T13:57:28.088Z,11.17
2018-06-21T13:59:56.556Z,10.97
2018-06-21T14:02:25.004Z,17.33
2018-06-21T14:04:53.454Z,11.20
2018-06-21T14:07:22.030Z,6.90
2018-06-21T14:09:50.425Z,5.70
2018-06-21T14:12:18.533Z,7.10
2018-06-21T14:14:46.971Z,5.93
2018-06-21T14:17:15.376Z,12.60
2018-06-21T14:19:43.764Z,14.33
2018-06-21T14:22:12.197Z,9.27
2018-06-21T14:24:40.624Z,6.83
2018-06-21T14:27:09.026Z,9.03
2018-06-21T14:29:37.440Z,4.97
2018-06-21T14:32:05.994Z,11.30
2018-06-21T14:34:34.332Z,6.70
2018-06-21T14:37:02.764Z,18.03
2018-06-21T14:39:31.149Z,7.37
2018-06-21T14:41:59.764Z,4.67
2018-06-21T14:44:28.166Z,9.77
2018-06-21T14:46:56.574Z,5.30
2018-06-21T14:49:25.277Z,8.07
2018-06-21T14:51:53.661Z,9.40
2018-06-21T14:54:22.059Z,8.40
2018-06-21T14:56:50.473Z,8.17
2018-06-21T14:59:18.857Z,11.63
2018-06-21T15:01:47.459Z,11.10
2018-06-21T15:04:16.217Z,6.70
2018-06-21T15:06:44.706Z,7.10
2018-06-21T15:09:13.892Z,8.33
2018-06-21T15:11:42.881Z,8.20
2018-06-21T15:14:11.305Z,10.43
2018-06-21T15:16:39.697Z,10.63
2018-06-21T15:19:08.072Z,9.77
2018-06-21T15:21:36.492Z,8.90
2018-06-21T15:24:05.135Z,10.47
2018-06-21T15:26:33.537Z,8.20
2018-06-21T15:29:01.962Z,6.77
2018-06-21T15:31:30.360Z,7.83
2018-06-21T15:33:58.771Z,4.70
2018-06-21T15:36:27.431Z,4.90
2018-06-21T15:38:58.450Z,7.40
2018-06-21T15:41:28.237Z,13.37
2018-06-21T15:43:56.644Z,7.40
2018-06-21T15:46:25.070Z,9.63
2018-06-21T15:48:53.495Z,9.60
2018-06-21T15:51:21.876Z,6.93
2018-06-21T15:53:50.309Z,9.47
2018-06-21T15:56:18.729Z,12.23
2018-06-21T15:58:47.216Z,4.70
2018-06-21T16:01:15.681Z,11.00
2018-06-21T16:03:44.101Z,10.80
2018-06-21T16:06:12.501Z,3.83
2018-06-21T16:08:41.016Z,7.00
2018-06-21T16:11:09.436Z,8.27
2018-06-21T16:13:37.844Z,8.77
2018-06-21T16:16:06.651Z,9.93
2018-06-21T16:18:35.042Z,5.93
2018-06-21T16:21:03.450Z,8.93
2018-06-21T16:23:32.198Z,7.17
2018-06-21T16:26:00.616Z,8.83
2018-06-21T16:28:29.042Z,7.87
2018-06-21T16:30:57.464Z,5.90
2018-06-21T16:33:25.941Z,9.43
2018-06-21T16:35:54.549Z,4.60
2018-06-21T16:38:22.932Z,6.63
2018-06-21T16:40:51.340Z,7.00
2018-06-21T16:43:19.989Z,7.80
2018-06-21T16:45:48.451Z,10.83
2018-06-21T16:48:16.822Z,5.33
2018-06-21T16:50:45.265Z,6.20
2018-06-21T16:53:13.793Z,6.43
2018-06-21T16:55:42.208Z,5.20
2018-06-21T16:58:10.644Z,8.20
2018-06-21T17:00:39.058Z,14.00
2018-06-21T17:03:07.808Z,9.27
2018-06-21T17:05:36.232Z,4.50
2018-06-21T17:08:04.656Z,7.30
2018-06-21T17:10:33.097Z,6.00
2018-06-21T17:13:01.616Z,4.10
2018-06-21T17:15:30.078Z,10.13
2018-06-21T17:17:58.524Z,5.50
2018-06-21T17:20:26.922Z,6.87
2018-06-21T17:22:55.343Z,7.63
2018-06-21T17:25:23.888Z,8.30
2018-06-21T17:27:52.289Z,12.07
2018-06-21T17:30:20.724Z,8.93
2018-06-21T17:32:49.835Z,10.20
2018-06-21T17:35:18.317Z,7.53
2018-06-21T17:37:46.431Z,4.07
2018-06-21T17:40:14.901Z,4.80
2018-06-21T17:42:43.321Z,7.27
2018-06-21T17:45:11.733Z,6.00
2018-06-21T17:47:40.466Z,7.33
2018-06-21T17:50:08.902Z,6.90
2018-06-21T17:52:37.318Z,7.80
2018-06-21T17:55:05.904Z,7.67
2018-06-21T17:57:34.297Z,8.70
2018-06-21T18:00:02.857Z,16.90
2018-06-21T18:02:31.286Z,8.07
2018-06-21T18:04:59.688Z,6.87
2018-06-21T18:07:28.121Z,9.43
2018-06-21T18:09:56.557Z,7.60
2018-06-21T18:12:25.076Z,10.27
2018-06-21T18:14:53.665Z,6.77
2018-06-21T18:17:21.904Z,6.77
2018-06-21T18:19:50.376Z,7.20
2018-06-21T18:22:18.809Z,5.97
2018-06-21T18:24:47.166Z,10.50
2018-06-21T18:27:15.614Z,5.90
2018-06-21T18:29:44.052Z,9.43
2018-06-21T18:32:12.495Z,11.93
2018-06-21T18:34:40.913Z,4.90
2018-06-21T18:37:09.441Z,12.67
2018-06-21T18:39:37.954Z,10.43
2018-06-21T18:42:06.489Z,12.27
2018-06-21T18:44:34.948Z,9.27
2018-06-21T18:47:03.417Z,8.20
2018-06-21T18:49:31.889Z,4.90
2018-06-21T18:52:00.363Z,13.73
2018-06-21T18:54:28.804Z,13.23
2018-06-21T18:56:57.208Z,10.23
2018-06-21T18:59:25.377Z,10.80
2018-06-21T19:01:53.927Z,7.10
2018-06-21T19:04:22.418Z,10.50
2018-06-21T19:06:56.113Z,12.13
2018-06-21T19:09:29.902Z,9.10
2018-06-21T19:12:04.397Z,14.53
2018-06-21T19:14:32.813Z,14.50
2018-06-21T19:17:01.487Z,8.73
2018-06-21T19:19:29.989Z,13.37
2018-06-21T19:21:58.386Z,18.40
2018-06-21T19:24:27.024Z,19.57
2018-06-21T19:26:55.493Z,13.53
2018-06-21T19:29:23.945Z,8.67
2018-06-21T19:31:52.680Z,10.87
2018-06-21T19:34:21.170Z,17.50
2018-06-21T19:36:49.640Z,13.07
2018-06-21T19:39:18.484Z,9.87
2018-06-21T19:41:46.953Z,10.73
2018-06-21T19:44:15.432Z,9.93
2018-06-21T19:46:44.065Z,10.37
2018-06-21T19:49:12.452Z,13.30
2018-06-21T19:51:41.170Z,9.20
2018-06-21T19:54:09.633Z,13.77
2018-06-21T19:56:38.075Z,12.80
2018-06-21T19:59:06.739Z,17.73
2018-06-21T20:01:36.784Z,12.03
2018-06-21T20:04:05.466Z,12.33
2018-06-21T20:06:33.901Z,13.97
2018-06-21T20:09:02.363Z,7.23
2018-06-21T20:11:35.882Z,13.60
2018-06-21T20:14:04.622Z,10.40
2018-06-21T20:16:33.056Z,10.17
2018-06-21T20:19:07.796Z,10.30
2018-06-21T20:21:36.218Z,17.00
2018-06-21T20:24:05.845Z,7.03
2018-06-21T20:26:34.308Z,8.00
2018-06-21T20:29:02.757Z,13.67
2018-06-21T20:31:31.238Z,7.53
2018-06-21T20:33:59.654Z,8.40
2018-06-21T20:36:29.268Z,11.83
2018-06-21T20:38:57.876Z,7.27
2018-06-21T20:41:26.369Z,16.43
2018-06-21T20:43:54.766Z,5.23
2018-06-21T20:46:23.353Z,7.43
2018-06-21T20:48:51.761Z,6.17
2018-06-21T20:51:20.350Z,11.67
2018-06-21T20:53:48.824Z,7.50
2018-06-21T20:56:17.251Z,11.60
2018-06-21T20:58:45.640Z,5.17
2018-06-21T21:01:14.022Z,7.47
2018-06-21T21:03:42.559Z,12.90
2018-06-21T21:06:10.955Z,14.30
2018-06-21T21:08:39.333Z,13.07
2018-06-21T21:11:07.787Z,9.73
2018-06-21T21:13:36.218Z,7.23
2018-06-21T21:16:04.792Z,11.90
2018-06-21T21:18:33.210Z,5.23
2018-06-21T21:21:01.695Z,11.93
2018-06-21T21:23:30.062Z,9.10
2018-06-21T21:25:58.685Z,9.13
2018-06-21T21:28:27.183Z,10.60
2018-06-21T21:30:55.509Z,15.47
2018-06-21T21:33:23.934Z,7.47
2018-06-21T21:35:52.063Z,13.93
2018-06-21T21:38:20.462Z,12.57
2018-06-21T21:40:49.003Z,14.73
2018-06-21T21:43:17.389Z,14.67
2018-06-21T21:45:45.760Z,17.03
2018-06-21T21:48:14.233Z,12.23
2018-06-21T21:50:42.597Z,18.83
2018-06-21T21:53:11.062Z,11.23
2018-06-21T21:55:39.482Z,15.70
2018-06-21T21:58:07.923Z,9.20
2018-06-21T22:00:48.717Z,13.50
2018-06-21T22:03:17.077Z,10.27
2018-06-21T22:05:45.492Z,13.67
2018-06-21T22:08:14.114Z,8.17
2018-06-21T22:10:43.709Z,10.30
2018-06-21T22:13:12.618Z,11.80
2018-06-21T22:15:41.181Z,13.67
2018-06-21T22:18:09.846Z,14.03
2018-06-21T22:20:38.544Z,15.80
2018-06-21T22:23:06.933Z,13.13
2018-06-21T22:25:35.413Z,15.03
2018-06-21T22:28:03.801Z,15.90
2018-06-21T22:30:32.322Z,9.80
2018-06-21T22:33:01.212Z,14.70
2018-06-21T22:35:29.825Z,17.10
2018-06-21T22:37:59.500Z,7.50
2018-06-21T22:40:28.403Z,13.93
2018-06-21T22:42:56.776Z,11.60
2018-06-21T22:45:25.288Z,12.13
2018-06-21T22:47:53.655Z,11.07
2018-06-21T22:50:22.339Z,10.87
2018-06-21T22:52:50.858Z,6.90
2018-06-21T22:55:19.261Z,9.90
2018-06-21T22:57:47.780Z,13.10
2018-06-21T23:00:16.950Z,15.00
2018-06-21T23:02:45.642Z,11.67
2018-06-21T23:05:14.336Z,12.60
2018-06-21T23:07:43.068Z,13.37
2018-06-21T23:10:11.449Z,17.33
2018-06-21T23:12:39.933Z,13.17
2018-06-21T23:15:08.507Z,18.83
2018-06-21T23:17:37.029Z,11.90
2018-06-21T23:20:05.415Z,12.23
2018-06-21T23:22:33.868Z,11.57
2018-06-21T23:25:02.099Z,18.87
2018-06-21T23:27:30.455Z,13.20
2018-06-21T23:29:58.949Z,17.70
2018-06-21T23:32:27.314Z,16.57
2018-06-21T23:34:55.685Z,7.73
2018-06-21T23:37:24.064Z,12.87
2018-06-21T23:39:52.439Z,11.10
2018-06-21T23:42:20.900Z,17.23
2018-06-21T23:44:49.393Z,11.60
2018-06-21T23:47:17.886Z,15.87
2018-06-21T23:49:46.240Z,19.00
2018-06-21T23:52:14.668Z,7.70
2018-06-21T23:54:43.145Z,8.63
2018-06-21T23:57:11.614Z,10.20
2018-06-21T23:59:40.385Z,9.23
